Time;durP1;ratioP1;P1;durP2;ratioP2;P2;SDS_P1;SDS_P2;PMS_P1;PMS_P2;Temp;Humidity;BMP_temperature;BMP_pressure;BME280_temperature;BME280_humidity;BME280_pressure;Samples;Min_cycle;Max_cycle;Signal;HPM_P1;HPM_P2
2021/05/17 00:02:02;;;;;;;1.08;0.90;;;23.90;33.10;;;;;;5068889;28;20205;-40
2021/05/17 00:04:31;;;;;;;0.80;0.80;;;23.90;32.70;;;;;;5071331;28;20201;-39
2021/05/17 00:06:57;;;;;;;0.80;0.80;;;23.90;33.10;;;;;;5070004;28;20274;-39
2021/05/17 00:09:23;;;;;;;1.35;1.02;;;23.90;33.10;;;;;;5071080;28;20751;-42
2021/05/17 00:11:49;;;;;;;1.45;0.80;;;23.90;33.10;;;;;;5069613;28;20217;-39
2021/05/17 00:14:15;;;;;;;0.85;0.80;;;23.90;33.10;;;;;;5071290;28;20209;-42
2021/05/17 00:16:41;;;;;;;0.90;0.85;;;23.80;33.10;;;;;;5068770;28;20665;-51
2021/05/17 00:19:07;;;;;;;2.40;0.95;;;23.90;33.10;;;;;;5069361;28;20189;-42
2021/05/17 00:21:33;;;;;;;1.90;0.90;;;23.80;33.10;;;;;;5065256;28;20556;-47
2021/05/17 00:23:59;;;;;;;1.45;1.27;;;23.90;33.00;;;;;;5071048;28;20209;-46
2021/05/17 00:26:25;;;;;;;1.10;0.80;;;23.90;33.10;;;;;;5069068;28;20598;-44
2021/05/17 00:28:51;;;;;;;0.70;0.60;;;23.90;33.10;;;;;;5070197;28;20201;-50
2021/05/17 00:31:17;;;;;;;1.00;0.90;;;23.80;33.00;;;;;;5067043;28;20223;-47
2021/05/17 00:33:43;;;;;;;2.95;1.15;;;23.80;33.00;;;;;;5071043;28;20220;-44
2021/05/17 00:36:09;;;;;;;1.33;0.85;;;23.80;32.80;;;;;;5067597;28;20232;-41
2021/05/17 00:38:35;;;;;;;2.20;1.10;;;23.80;32.80;;;;;;5068887;28;20204;-42
2021/05/17 00:41:01;;;;;;;0.82;0.80;;;23.80;33.00;;;;;;5069947;28;20197;-42
2021/05/17 00:43:27;;;;;;;1.35;1.25;;;23.80;32.90;;;;;;5070596;28;20246;-44
2021/05/17 00:45:53;;;;;;;1.00;0.85;;;23.80;32.90;;;;;;5069460;28;20226;-41
2021/05/17 00:48:19;;;;;;;1.38;0.90;;;23.80;33.00;;;;;;5069559;28;20263;-44
2021/05/17 00:50:45;;;;;;;1.45;1.00;;;23.80;33.00;;;;;;5068623;22;20266;-42
2021/05/17 00:53:11;;;;;;;1.17;1.00;;;23.90;32.90;;;;;;5048262;28;20197;-50
2021/05/17 00:55:38;;;;;;;1.08;0.90;;;23.80;32.90;;;;;;5061880;28;20233;-50
2021/05/17 00:58:04;;;;;;;0.80;0.80;;;23.80;32.80;;;;;;5069271;28;20219;-44
2021/05/17 01:00:30;;;;;;;1.05;0.70;;;23.80;33.00;;;;;;5069361;28;20241;-44
2021/05/17 01:02:56;;;;;;;1.73;1.00;;;23.80;33.00;;;;;;5070004;28;20201;-47
2021/05/17 01:05:21;;;;;;;1.02;0.90;;;23.80;33.00;;;;;;5068218;28;20564;-42
2021/05/17 01:07:49;;;;;;;1.02;0.90;;;23.80;33.70;;;;;;5068551;28;20285;-59
2021/05/17 01:10:15;;;;;;;1.50;1.00;;;23.80;32.80;;;;;;5068054;28;20209;-50
2021/05/17 01:12:41;;;;;;;2.10;1.20;;;23.80;33.00;;;;;;5069876;28;20208;-54
2021/05/17 01:15:07;;;;;;;2.33;0.93;;;23.80;32.90;;;;;;5067593;28;20601;-45
2021/05/17 01:17:33;;;;;;;0.82;0.80;;;23.80;32.90;;;;;;5073004;28;20201;-46
2021/05/17 01:19:59;;;;;;;0.90;0.80;;;23.80;32.90;;;;;;5072306;28;20240;-45
2021/05/17 01:22:25;;;;;;;0.75;0.73;;;23.80;32.90;;;;;;5073606;28;20224;-49
2021/05/17 01:24:51;;;;;;;0.98;0.82;;;23.80;33.00;;;;;;5071294;28;20869;-46
2021/05/17 01:27:17;;;;;;;1.27;0.80;;;23.80;33.00;;;;;;5073124;28;20209;-43
2021/05/17 01:29:43;;;;;;;1.13;0.75;;;23.80;33.00;;;;;;5071832;28;20204;-51
2021/05/17 01:32:09;;;;;;;1.52;1.00;;;23.80;33.00;;;;;;5072037;28;20277;-50
2021/05/17 01:34:35;;;;;;;0.80;0.80;;;23.80;33.00;;;;;;5072388;28;20220;-42
2021/05/17 01:37:01;;;;;;;1.23;1.00;;;23.80;33.00;;;;;;5077955;28;20198;-47
2021/05/17 01:39:27;;;;;;;1.27;0.70;;;23.80;32.90;;;;;;5082921;28;20216;-41
2021/05/17 01:41:53;;;;;;;0.80;0.80;;;23.80;33.70;;;;;;5081268;28;20645;-47
2021/05/17 01:44:19;;;;;;;0.70;0.70;;;23.80;33.00;;;;;;5074824;28;20267;-43
2021/05/17 01:46:45;;;;;;;0.88;0.70;;;23.80;32.90;;;;;;5070379;28;20298;-47
2021/05/17 01:49:11;;;;;;;0.90;0.90;;;23.80;33.00;;;;;;5067164;28;20224;-47
2021/05/17 01:51:37;;;;;;;0.95;0.80;;;23.80;32.80;;;;;;5055016;28;20201;-42
2021/05/17 01:54:03;;;;;;;0.80;0.80;;;23.80;33.00;;;;;;5072030;28;20217;-38
2021/05/17 01:56:29;;;;;;;1.00;0.90;;;23.80;33.00;;;;;;5072521;28;20236;-38
2021/05/17 01:58:55;;;;;;;0.80;0.80;;;23.80;33.00;;;;;;5072336;28;20197;-41
2021/05/17 02:01:22;;;;;;;1.73;0.90;;;23.80;33.00;;;;;;5071982;28;20651;-37
2021/05/17 02:03:48;;;;;;;0.93;0.70;;;23.80;33.00;;;;;;5071294;28;20756;-43
2021/05/17 02:06:13;;;;;;;1.08;0.90;;;23.80;33.00;;;;;;5071933;28;20197;-42
2021/05/17 02:08:39;;;;;;;0.85;0.80;;;23.80;33.00;;;;;;5069889;28;20204;-42
2021/05/17 02:11:05;;;;;;;0.82;0.82;;;23.80;33.00;;;;;;5071929;28;20212;-37
2021/05/17 02:13:31;;;;;;;0.98;0.80;;;23.80;33.00;;;;;;5071631;28;20197;-37
2021/05/17 02:15:57;;;;;;;1.05;0.70;;;23.80;33.00;;;;;;5070885;28;20225;-37
2021/05/17 02:18:23;;;;;;;1.25;1.10;;;23.80;33.00;;;;;;5072164;28;20205;-43
2021/05/17 02:20:49;;;;;;;1.40;0.90;;;23.80;33.00;;;;;;5071851;28;20201;-38
2021/05/17 02:23:15;;;;;;;1.40;0.80;;;23.80;33.00;;;;;;5072327;28;20228;-40
2021/05/17 02:25:42;;;;;;;1.30;1.20;;;23.80;33.10;;;;;;5071125;28;20582;-38
2021/05/17 02:28:08;;;;;;;1.55;0.70;;;23.80;33.00;;;;;;5069948;28;20201;-38
2021/05/17 02:30:34;;;;;;;1.42;0.80;;;23.80;33.00;;;;;;5071042;28;20212;-44
2021/05/17 02:33:00;;;;;;;1.13;0.93;;;23.80;33.00;;;;;;5071436;28;20250;-41
2021/05/17 02:35:26;;;;;;;1.23;1.00;;;23.80;33.00;;;;;;5071857;28;20241;-45
2021/05/17 02:37:52;;;;;;;1.80;1.00;;;23.80;33.00;;;;;;5070835;28;20267;-52
2021/05/17 02:40:18;;;;;;;0.82;0.70;;;23.80;33.70;;;;;;5072259;28;20193;-39
2021/05/17 02:42:44;;;;;;;1.10;0.80;;;23.80;33.00;;;;;;5071264;28;20201;-38
2021/05/17 02:45:10;;;;;;;1.55;0.80;;;23.80;33.00;;;;;;5071612;28;20224;-44
2021/05/17 02:47:36;;;;;;;0.80;0.77;;;23.80;33.00;;;;;;5069981;28;20201;-49
2021/05/17 02:50:02;;;;;;;1.10;0.70;;;23.80;33.00;;;;;;5071722;28;20205;-52
2021/05/17 02:52:28;;;;;;;2.45;1.00;;;23.80;33.10;;;;;;5071169;28;20680;-37
2021/05/17 02:54:54;;;;;;;0.80;0.80;;;23.80;33.00;;;;;;5070580;28;20232;-38
2021/05/17 02:57:20;;;;;;;1.40;0.93;;;23.80;33.10;;;;;;5069312;28;20197;-47
2021/05/17 02:59:46;;;;;;;2.20;1.10;;;23.80;33.00;;;;;;5071112;28;20281;-38
2021/05/17 03:02:12;;;;;;;0.95;0.80;;;23.80;33.10;;;;;;5071568;28;20292;-40
2021/05/17 03:04:40;;;;;;;1.15;0.82;;;23.80;33.00;;;;;;5070866;28;20225;-43
2021/05/17 03:07:06;;;;;;;2.78;1.13;;;23.80;33.10;;;;;;5069622;28;20665;-43
2021/05/17 03:09:32;;;;;;;0.90;0.90;;;23.80;33.00;;;;;;5072064;28;20201;-39
2021/05/17 03:11:59;;;;;;;0.95;0.80;;;23.80;33.00;;;;;;5070019;28;20251;-38
2021/05/17 03:14:25;;;;;;;0.93;0.80;;;23.80;33.00;;;;;;5070894;28;20666;-49
2021/05/17 03:16:51;;;;;;;1.00;0.90;;;23.80;33.00;;;;;;5070317;28;20278;-43
2021/05/17 03:19:18;;;;;;;0.70;0.70;;;23.80;33.00;;;;;;5070853;28;20280;-42
2021/05/17 03:21:44;;;;;;;0.68;0.68;;;23.80;33.00;;;;;;5070149;28;20606;-48
2021/05/17 03:24:10;;;;;;;0.80;0.80;;;23.80;33.00;;;;;;5070463;28;20223;-42
2021/05/17 03:26:36;;;;;;;0.90;0.90;;;23.80;33.00;;;;;;5069821;28;20212;-38
2021/05/17 03:29:02;;;;;;;0.90;0.90;;;23.80;33.00;;;;;;5071190;28;20250;-38
2021/05/17 03:31:28;;;;;;;1.17;0.90;;;23.80;33.00;;;;;;5070266;28;20231;-50
2021/05/17 03:33:54;;;;;;;0.93;0.88;;;23.80;33.10;;;;;;5070468;28;21096;-47
2021/05/17 03:36:20;;;;;;;1.13;1.02;;;23.80;33.10;;;;;;5070965;28;20228;-40
2021/05/17 03:38:46;;;;;;;2.67;1.00;;;23.80;33.10;;;;;;5069729;28;20572;-52
2021/05/17 03:41:12;;;;;;;1.67;0.70;;;23.80;33.20;;;;;;5071037;28;20252;-51
2021/05/17 03:43:38;;;;;;;1.63;0.80;;;23.80;33.30;;;;;;5068657;28;20224;-43
2021/05/17 03:46:04;;;;;;;0.85;0.70;;;23.80;33.30;;;;;;5070619;28;20208;-38
2021/05/17 03:48:29;;;;;;;2.78;0.95;;;23.80;33.30;;;;;;5070085;28;20228;-47
2021/05/17 03:50:55;;;;;;;0.70;0.70;;;23.80;33.50;;;;;;5071589;28;20209;-37
2021/05/17 03:53:21;;;;;;;1.48;1.08;;;23.80;33.60;;;;;;5069509;28;20209;-40
2021/05/17 03:55:48;;;;;;;1.35;0.90;;;23.80;33.70;;;;;;5056443;28;20239;-47
2021/05/17 03:58:14;;;;;;;0.95;0.85;;;23.80;33.60;;;;;;5067517;28;20202;-45
2021/05/17 04:00:40;;;;;;;1.15;0.90;;;23.80;33.50;;;;;;5070878;28;20204;-38
2021/05/17 04:03:13;;;;;;;1.98;0.90;;;23.80;33.60;;;;;;5069681;28;20205;-38
2021/05/17 04:05:47;;;;;;;1.08;0.90;;;23.80;34.50;;;;;;5070782;28;20217;-40
2021/05/17 04:12:29;;;;;;;1.00;0.85;;;23.80;34.20;;;;;;5067748;28;20691;-37
2021/05/17 04:14:10;;;;;;;1.25;0.90;;;23.80;33.80;;;;;;4987185;28;20310;-38
2021/05/17 04:16:36;;;;;;;0.80;0.80;;;23.80;33.90;;;;;;4988045;28;20708;-41
2021/05/17 04:19:02;;;;;;;1.08;0.85;;;23.80;33.70;;;;;;5022461;28;20201;-39
2021/05/17 04:21:28;;;;;;;1.05;1.02;;;23.80;33.70;;;;;;5070768;28;20223;-45
2021/05/17 04:23:54;;;;;;;1.88;0.95;;;23.80;33.70;;;;;;5069212;28;20221;-38
2021/05/17 04:26:20;;;;;;;1.08;0.98;;;23.80;33.60;;;;;;5070035;28;20245;-39
2021/05/17 04:28:46;;;;;;;2.97;1.13;;;23.80;33.60;;;;;;5068061;28;20205;-50
2021/05/17 04:31:12;;;;;;;1.75;0.75;;;23.80;33.60;;;;;;5062707;28;20212;-46
2021/05/17 04:33:38;;;;;;;1.10;0.80;;;23.80;33.60;;;;;;5069813;28;20217;-48
2021/05/17 04:36:04;;;;;;;1.02;0.82;;;23.80;33.50;;;;;;5070779;28;20262;-48
2021/05/17 04:38:30;;;;;;;1.80;1.08;;;23.80;33.60;;;;;;5065701;28;20610;-43
2021/05/17 04:40:56;;;;;;;0.80;0.80;;;23.80;33.50;;;;;;5070523;28;20201;-47
2021/05/17 04:43:22;;;;;;;1.50;0.88;;;23.80;33.40;;;;;;5068891;28;20324;-51
2021/05/17 04:45:47;;;;;;;1.10;1.00;;;23.80;33.50;;;;;;5070623;28;20213;-51
2021/05/17 04:48:13;;;;;;;2.00;0.90;;;23.80;33.40;;;;;;5068181;28;20204;-43
2021/05/17 04:50:39;;;;;;;1.10;1.00;;;23.80;33.40;;;;;;5073863;28;20220;-44
2021/05/17 04:53:05;;;;;;;1.65;0.90;;;23.80;33.30;;;;;;5072681;28;20263;-52
2021/05/17 04:55:31;;;;;;;1.10;1.00;;;23.80;33.10;;;;;;5074439;28;20334;-44
2021/05/17 04:57:57;;;;;;;1.40;0.90;;;23.80;33.00;;;;;;5072962;28;20201;-51
2021/05/17 05:00:23;;;;;;;0.85;0.80;;;23.80;33.10;;;;;;5071321;28;20735;-44
2021/05/17 05:02:49;;;;;;;1.40;0.80;;;23.80;33.00;;;;;;5072428;28;20205;-42
2021/05/17 05:05:15;;;;;;;0.73;0.68;;;23.80;33.00;;;;;;5073125;28;20229;-47
2021/05/17 05:07:41;;;;;;;0.77;0.70;;;23.80;33.00;;;;;;5072975;28;20204;-39
2021/05/17 05:10:07;;;;;;;0.80;0.80;;;23.80;33.00;;;;;;5072635;28;20603;-47
2021/05/17 05:12:33;;;;;;;2.78;1.23;;;23.80;33.00;;;;;;5073239;28;20197;-48
2021/05/17 05:14:59;;;;;;;1.67;1.17;;;23.80;33.00;;;;;;5072523;28;20290;-48
2021/05/17 05:17:25;;;;;;;0.85;0.85;;;23.80;33.00;;;;;;5071789;28;20204;-40
2021/05/17 05:19:51;;;;;;;1.13;0.70;;;23.80;33.00;;;;;;5071969;28;20201;-48
2021/05/17 05:22:17;;;;;;;0.90;0.90;;;23.80;33.00;;;;;;5072655;28;20228;-46
2021/05/17 05:24:43;;;;;;;0.80;0.80;;;23.80;33.10;;;;;;5073721;28;20693;-47
2021/05/17 05:27:17;;;;;;;1.17;1.08;;;23.80;33.00;;;;;;5072787;28;20220;-38
2021/05/17 05:29:59;;;;;;;0.70;0.70;;;23.80;33.00;;;;;;5072236;28;20204;-48
2021/05/17 05:32:29;;;;;;;0.80;0.80;;;23.80;33.00;;;;;;5073337;28;20243;-51
2021/05/17 05:34:55;;;;;;;0.63;0.60;;;23.80;33.10;;;;;;5072303;28;20255;-43
2021/05/17 05:37:21;;;;;;;1.00;0.80;;;23.80;33.00;;;;;;5073542;28;20209;-40
2021/05/17 05:39:47;;;;;;;1.00;0.82;;;23.80;33.10;;;;;;5069950;28;20569;-58
2021/05/17 05:42:13;;;;;;;1.10;0.85;;;23.80;33.00;;;;;;5073121;28;20204;-43
2021/05/17 05:44:46;;;;;;;0.90;0.90;;;23.80;33.00;;;;;;5072279;28;20278;-41
2021/05/17 05:47:15;;;;;;;1.05;0.95;;;23.80;33.00;;;;;;5073239;28;20212;-39
2021/05/17 05:49:41;;;;;;;1.60;0.90;;;23.80;33.00;;;;;;5072892;28;20205;-42
2021/05/17 05:52:07;;;;;;;0.70;0.70;;;23.80;33.00;;;;;;5072173;28;20204;-45
2021/05/17 05:54:33;;;;;;;1.60;1.00;;;23.80;33.00;;;;;;5072665;28;20217;-46
2021/05/17 05:56:59;;;;;;;1.35;0.80;;;23.80;33.10;;;;;;5071428;28;20629;-47
2021/05/17 05:59:25;;;;;;;1.27;1.02;;;23.80;33.00;;;;;;5069000;28;20243;-45
2021/05/17 06:01:51;;;;;;;1.48;1.00;;;23.80;33.00;;;;;;5073068;28;20255;-38
2021/05/17 06:04:18;;;;;;;1.50;0.80;;;23.80;33.00;;;;;;5067089;28;20290;-43
2021/05/17 06:06:44;;;;;;;1.30;1.20;;;23.80;33.20;;;;;;5062499;28;20198;-48
2021/05/17 06:09:10;;;;;;;3.47;1.17;;;23.80;34.50;;;;;;5071661;28;20220;-43
2021/05/17 06:11:36;;;;;;;3.15;1.20;;;23.80;34.50;;;;;;5079174;28;20668;-46
2021/05/17 06:14:03;;;;;;;3.17;1.30;;;23.80;35.00;;;;;;5078066;28;20229;-45
2021/05/17 06:16:29;;;;;;;4.00;1.00;;;23.80;34.80;;;;;;5071487;28;20232;-52
2021/05/17 06:18:55;;;;;;;5.90;1.58;;;23.80;35.40;;;;;;5072460;28;20208;-45
2021/05/17 06:21:21;;;;;;;4.63;1.20;;;23.80;35.30;;;;;;5072457;28;20259;-45
2021/05/17 06:23:47;;;;;;;4.40;1.30;;;23.90;35.20;;;;;;5070304;28;20225;-40
2021/05/17 06:26:13;;;;;;;6.00;1.35;;;23.80;34.80;;;;;;5060997;28;20290;-50
2021/05/17 06:28:39;;;;;;;3.17;1.20;;;22.40;29.40;;;;;;5071155;28;20205;-38
2021/05/17 06:31:06;;;;;;;3.10;1.33;;;19.10;30.60;;;;;;5075451;28;20216;-43
2021/05/17 06:33:31;;;;;;;3.07;1.40;;;17.20;34.80;;;;;;5071696;28;20309;-40
2021/05/17 06:35:58;;;;;;;2.30;1.27;;;17.50;34.20;;;;;;5080988;28;20284;-45
2021/05/17 06:38:24;;;;;;;2.53;1.20;;;16.50;34.80;;;;;;5078137;28;20205;-43
2021/05/17 06:40:50;;;;;;;4.10;1.30;;;18.60;33.30;;;;;;5089008;28;20212;-44
2021/05/17 06:43:16;;;;;;;3.17;1.13;;;20.10;31.70;;;;;;5072565;28;20229;-41
2021/05/17 06:45:42;;;;;;;2.90;1.40;;;21.00;31.20;;;;;;5072028;28;20209;-46
2021/05/17 06:48:08;;;;;;;2.97;1.20;;;21.50;30.40;;;;;;5066752;28;20206;-44
2021/05/17 06:50:34;;;;;;;2.70;1.00;;;21.90;30.10;;;;;;5068739;28;20231;-41
2021/05/17 06:53:00;;;;;;;2.97;1.37;;;22.20;30.20;;;;;;5083684;28;20209;-53
2021/05/17 06:55:31;;;;;;;2.50;1.70;;;22.40;30.20;;;;;;5080527;28;20307;-41
2021/05/17 06:58:09;;;;;;;2.57;1.20;;;22.60;30.20;;;;;;5078011;28;20207;-41
2021/05/17 07:00:35;;;;;;;1.90;0.97;;;22.70;30.40;;;;;;5087360;22;20223;-44
2021/05/17 07:03:01;;;;;;;2.00;1.20;;;22.80;30.40;;;;;;5054953;28;20274;-46
2021/05/17 07:05:27;;;;;;;2.23;1.10;;;22.90;30.50;;;;;;5070130;28;20545;-48
2021/05/17 07:13:21;;;;;;;2.60;1.40;;;23.00;31.00;;;;;;5068911;28;20251;-48
2021/05/17 07:15:47;;;;;;;2.23;1.00;;;23.10;31.20;;;;;;5069048;28;20254;-46
2021/05/17 07:18:13;;;;;;;3.50;1.10;;;23.10;31.30;;;;;;5066643;28;20205;-47
2021/05/17 07:23:39;;;;;;;2.63;1.17;;;23.20;31.70;;;;;;5071650;28;20604;-42
2021/05/17 07:26:05;;;;;;;3.50;1.13;;;23.20;31.80;;;;;;5070387;28;20205;-49
2021/05/17 07:28:31;;;;;;;1.35;0.98;;;23.20;31.80;;;;;;5070113;28;20660;-47
2021/05/17 07:31:01;;;;;;;1.43;1.00;;;23.20;32.70;;;;;;5067822;28;20205;-46
2021/05/17 07:33:27;;;;;;;3.60;1.20;;;23.30;32.50;;;;;;5071093;28;20672;-46
2021/05/17 07:35:53;;;;;;;1.58;0.93;;;23.30;32.30;;;;;;5069452;28;20278;-41
2021/05/17 07:38:22;;;;;;;2.27;1.00;;;23.30;32.40;;;;;;5064533;28;20197;-49
2021/05/17 07:40:48;;;;;;;2.20;1.00;;;23.30;32.50;;;;;;5070260;28;20199;-45
2021/05/17 07:43:14;;;;;;;4.13;1.10;;;23.40;32.70;;;;;;5069889;28;20693;-44
2021/05/17 07:45:40;;;;;;;1.63;0.98;;;23.40;32.40;;;;;;5067708;28;20631;-44
2021/05/17 07:48:06;;;;;;;3.63;1.40;;;23.50;32.70;;;;;;5065636;28;20205;-42
2021/05/17 07:50:32;;;;;;;2.13;1.00;;;23.50;32.60;;;;;;5068737;28;20197;-43
2021/05/17 07:52:58;;;;;;;1.63;1.00;;;23.60;32.80;;;;;;5062248;28;20225;-45
2021/05/17 07:55:25;;;;;;;2.75;1.02;;;23.50;33.00;;;;;;5068339;28;20232;-49
2021/05/17 07:57:51;;;;;;;2.13;1.00;;;23.50;31.50;;;;;;5068757;28;20657;-48
2021/05/17 08:00:17;;;;;;;2.25;1.10;;;23.40;32.60;;;;;;5071229;28;20254;-43
2021/05/17 08:02:43;;;;;;;3.42;1.10;;;23.40;32.60;;;;;;5071812;28;20266;-45
2021/05/17 08:05:09;;;;;;;2.10;1.00;;;23.50;32.80;;;;;;5071575;28;20615;-47
2021/05/17 08:07:36;;;;;;;2.90;1.00;;;23.50;32.70;;;;;;5070511;28;20223;-52
2021/05/17 08:10:03;;;;;;;3.38;1.10;;;23.50;32.70;;;;;;5071167;28;20677;-47
2021/05/17 08:12:29;;;;;;;5.50;1.20;;;23.50;32.70;;;;;;5071154;28;20232;-51
2021/05/17 08:14:56;;;;;;;2.22;1.15;;;23.50;32.70;;;;;;5071178;28;20201;-47
2021/05/17 08:17:22;;;;;;;1.90;1.20;;;23.50;32.80;;;;;;5070574;28;20228;-48
2021/05/17 08:19:48;;;;;;;2.88;1.00;;;23.50;32.70;;;;;;5070769;28;20200;-48
2021/05/17 08:22:14;;;;;;;1.35;0.85;;;23.50;32.70;;;;;;5068060;28;20229;-46
2021/05/17 08:24:41;;;;;;;3.95;1.50;;;23.50;32.70;;;;;;5070870;28;20212;-41
2021/05/17 08:27:07;;;;;;;1.77;1.00;;;23.50;33.10;;;;;;5070307;28;20200;-45
2021/05/17 08:29:35;;;;;;;4.28;1.40;;;23.50;32.70;;;;;;5070736;28;20213;-45
2021/05/17 08:32:02;;;;;;;1.65;1.13;;;23.50;32.70;;;;;;5069920;28;20251;-42
2021/05/17 08:34:28;;;;;;;2.22;1.20;;;23.50;32.70;;;;;;5066069;28;20692;-42
2021/05/17 08:36:54;;;;;;;1.77;0.90;;;23.50;32.50;;;;;;5060555;28;20225;-45
2021/05/17 08:39:20;;;;;;;3.05;1.00;;;23.50;32.50;;;;;;5068692;28;20197;-42
2021/05/17 08:41:46;;;;;;;1.45;0.90;;;23.50;32.40;;;;;;5071188;28;20205;-48
2021/05/17 08:44:12;;;;;;;3.55;1.00;;;23.50;32.40;;;;;;5070760;28;20209;-46
2021/05/17 08:46:42;;;;;;;1.77;1.00;;;23.50;32.30;;;;;;5070626;28;20204;-42
2021/05/17 08:49:08;;;;;;;0.85;0.80;;;23.50;32.30;;;;;;5067914;28;20205;-40
2021/05/17 09:23:34;;;;;;;2.53;0.90;;;23.90;34.10;;;;;;5526090;22;20273;-45
2021/05/17 09:26:00;;;;;;;3.42;1.00;;;23.90;34.30;;;;;;5043754;28;20218;-46
2021/05/17 09:28:26;;;;;;;1.77;1.42;;;23.90;34.20;;;;;;5037526;28;20281;-47
2021/05/17 09:30:52;;;;;;;2.38;1.27;;;23.90;34.00;;;;;;5045700;28;20653;-43
2021/05/17 09:33:18;;;;;;;2.75;0.90;;;23.90;33.60;;;;;;5047921;28;20246;-50
2021/05/17 09:35:44;;;;;;;1.75;1.08;;;23.90;33.40;;;;;;5049600;28;20225;-45
2021/05/17 09:38:10;;;;;;;1.60;0.90;;;23.90;33.50;;;;;;5051906;28;20535;-44
2021/05/17 09:40:36;;;;;;;2.50;1.08;;;23.90;33.70;;;;;;5037692;28;20217;-47
2021/05/17 09:43:02;;;;;;;5.03;1.10;;;23.90;33.30;;;;;;5049407;28;20585;-47
2021/05/17 09:45:28;;;;;;;3.15;1.15;;;23.90;34.00;;;;;;5042225;28;20217;-48
2021/05/17 09:47:54;;;;;;;3.10;1.73;;;23.90;33.90;;;;;;5045838;28;20209;-42
2021/05/17 09:50:20;;;;;;;2.10;1.13;;;23.90;33.70;;;;;;5050051;28;20198;-50
2021/05/17 09:52:46;;;;;;;3.30;1.30;;;23.90;33.60;;;;;;5032336;28;20218;-49
2021/05/17 09:55:12;;;;;;;4.72;0.98;;;23.90;33.60;;;;;;5042292;28;20205;-53
2021/05/17 09:57:38;;;;;;;1.75;0.70;;;23.90;33.40;;;;;;5050209;28;20252;-43
2021/05/17 10:00:04;;;;;;;2.05;0.95;;;23.80;33.50;;;;;;5050252;28;20198;-47
2021/05/17 10:02:31;;;;;;;2.35;0.88;;;23.90;33.20;;;;;;5033829;28;20222;-48
2021/05/17 10:04:57;;;;;;;1.55;1.17;;;23.90;33.10;;;;;;5040309;28;20206;-50
2021/05/17 10:07:23;;;;;;;1.00;0.85;;;23.90;33.30;;;;;;5046785;28;20261;-46
2021/05/17 10:09:49;;;;;;;1.88;1.02;;;23.90;33.10;;;;;;5045334;28;20202;-44
2021/05/17 10:12:15;;;;;;;1.75;0.73;;;23.90;33.10;;;;;;5045299;28;20615;-51
2021/05/17 10:14:41;;;;;;;1.38;0.70;;;23.90;33.50;;;;;;5044394;28;20268;-46
2021/05/17 10:17:07;;;;;;;1.75;0.90;;;23.90;33.60;;;;;;5045088;28;20291;-43
2021/05/17 10:19:33;;;;;;;2.42;1.10;;;23.90;33.40;;;;;;5042286;28;20198;-45
2021/05/17 10:21:58;;;;;;;2.00;1.00;;;23.90;33.80;;;;;;5043415;28;20226;-47
2021/05/17 10:24:24;;;;;;;0.85;0.73;;;23.90;33.50;;;;;;5045347;28;20281;-43
2021/05/17 10:26:50;;;;;;;1.58;0.90;;;23.90;33.30;;;;;;5050826;28;20232;-45
2021/05/17 10:29:16;;;;;;;2.35;0.90;;;24.00;33.50;;;;;;5049634;28;20202;-45
2021/05/17 10:31:42;;;;;;;3.33;0.88;;;24.00;33.40;;;;;;5046291;28;20568;-46
2021/05/17 10:34:09;;;;;;;2.00;1.20;;;24.00;33.30;;;;;;5047055;28;20269;-50
2021/05/17 10:36:35;;;;;;;2.05;0.88;;;24.00;33.80;;;;;;5038060;28;20300;-48
2021/05/17 10:39:05;;;;;;;1.33;0.80;;;24.00;34.70;;;;;;5043595;28;20198;-48
2021/05/17 10:41:42;;;;;;;0.90;0.80;;;24.00;34.30;;;;;;5041143;28;20214;-47
2021/05/17 10:44:13;;;;;;;2.45;1.08;;;24.00;34.40;;;;;;5041987;28;20284;-47
2021/05/17 10:46:39;;;;;;;2.42;0.80;;;24.00;34.30;;;;;;5041340;28;20229;-50
2021/05/17 10:49:05;;;;;;;2.00;0.82;;;24.00;34.30;;;;;;5046417;28;20230;-42
2021/05/17 10:51:31;;;;;;;1.40;0.90;;;24.00;34.40;;;;;;5042349;28;20688;-47
2021/05/17 10:53:58;;;;;;;1.75;1.15;;;24.00;34.20;;;;;;5047704;28;20247;-50
2021/05/17 10:56:24;;;;;;;1.35;1.05;;;24.00;34.20;;;;;;5033706;28;20254;-44
2021/05/17 11:01:30;;;;;;;1.70;0.85;;;24.00;33.50;;;;;;5039156;28;20211;-47
2021/05/17 11:03:56;;;;;;;1.50;0.70;;;24.00;34.20;;;;;;5047183;28;20251;-49
2021/05/17 11:06:22;;;;;;;1.83;1.00;;;24.10;34.30;;;;;;5042091;28;20598;-49
2021/05/17 11:08:48;;;;;;;1.67;0.82;;;24.10;34.20;;;;;;5050265;28;20202;-49
2021/05/17 11:11:15;;;;;;;3.05;0.80;;;24.10;34.30;;;;;;5046110;28;20344;-49
2021/05/17 11:13:41;;;;;;;1.00;0.90;;;24.10;34.70;;;;;;5048010;28;20238;-46
2021/05/17 11:16:08;;;;;;;1.73;1.00;;;24.00;34.20;;;;;;5048958;28;20226;-52
2021/05/17 11:18:34;;;;;;;1.00;0.77;;;24.00;34.00;;;;;;5045221;28;20198;-51
2021/05/17 11:21:00;;;;;;;0.80;0.80;;;23.90;33.80;;;;;;5041566;28;20213;-53
2021/05/17 11:23:26;;;;;;;0.80;0.80;;;24.00;33.70;;;;;;5044133;28;20225;-51
2021/05/17 11:25:53;;;;;;;1.33;1.13;;;23.90;33.40;;;;;;5046408;28;20225;-48
2021/05/17 11:28:19;;;;;;;1.52;1.00;;;23.90;33.70;;;;;;5045397;28;20194;-46
2021/05/17 11:30:45;;;;;;;1.05;0.90;;;23.90;33.60;;;;;;5041711;28;20208;-48
2021/05/17 11:33:11;;;;;;;2.50;0.80;;;23.90;33.70;;;;;;5042841;28;20716;-40
2021/05/17 11:35:37;;;;;;;1.98;1.10;;;23.90;33.60;;;;;;5046043;28;20230;-44
2021/05/17 11:38:03;;;;;;;2.40;0.90;;;23.90;33.40;;;;;;5046174;28;20194;-43
2021/05/17 11:40:29;;;;;;;1.45;0.82;;;23.90;34.60;;;;;;5046680;28;20202;-44
2021/05/17 11:42:55;;;;;;;1.10;0.90;;;23.90;34.40;;;;;;5034341;28;20222;-45
2021/05/17 11:45:23;;;;;;;1.50;1.10;;;23.90;34.30;;;;;;5040365;28;20214;-41
2021/05/17 11:47:49;;;;;;;1.42;1.20;;;23.90;34.10;;;;;;5038540;28;20213;-41
2021/05/17 11:50:15;;;;;;;0.70;0.70;;;23.90;33.50;;;;;;5041580;28;20194;-41
2021/05/17 11:52:41;;;;;;;1.35;0.80;;;23.90;33.20;;;;;;5038508;28;20267;-45
2021/05/17 11:55:07;;;;;;;1.17;0.85;;;23.90;33.80;;;;;;5039530;28;21293;-42
2021/05/17 11:57:33;;;;;;;4.25;1.58;;;24.00;34.00;;;;;;5038131;28;20232;-41
2021/05/17 11:59:59;;;;;;;1.42;0.82;;;24.00;34.30;;;;;;5039658;28;20207;-42
2021/05/17 12:02:25;;;;;;;2.22;1.15;;;24.00;34.30;;;;;;5040685;28;20224;-40
2021/05/17 12:04:51;;;;;;;2.38;1.42;;;24.00;34.20;;;;;;5039695;28;20244;-42
2021/05/17 12:07:17;;;;;;;1.15;1.00;;;24.00;34.20;;;;;;5041091;28;20198;-43
2021/05/17 12:09:43;;;;;;;2.72;1.27;;;24.00;34.20;;;;;;5039083;28;20245;-42
2021/05/17 12:12:09;;;;;;;1.08;0.88;;;24.00;34.70;;;;;;5042386;28;20444;-42
2021/05/17 12:14:35;;;;;;;2.05;0.90;;;24.00;34.40;;;;;;5044625;28;20202;-44
2021/05/17 12:17:01;;;;;;;5.85;1.20;;;24.00;34.70;;;;;;5042866;28;20229;-40
2021/05/17 12:19:27;;;;;;;1.85;1.00;;;24.00;34.60;;;;;;5042492;28;20221;-40
2021/05/17 12:21:53;;;;;;;2.03;1.08;;;23.90;34.00;;;;;;5042917;28;20270;-44
2021/05/17 12:24:19;;;;;;;1.92;1.10;;;24.00;34.30;;;;;;5041417;28;20581;-42
2021/05/17 12:26:45;;;;;;;1.33;0.90;;;23.90;34.20;;;;;;5041512;28;20649;-40
2021/05/17 12:29:12;;;;;;;1.95;0.88;;;23.90;33.80;;;;;;5040618;28;20218;-42
2021/05/17 12:31:38;;;;;;;1.30;0.82;;;23.90;33.70;;;;;;5040596;28;20221;-40
2021/05/17 12:34:04;;;;;;;1.85;0.98;;;23.90;33.70;;;;;;5042623;28;20523;-47
2021/05/17 12:36:30;;;;;;;2.17;0.85;;;23.90;33.60;;;;;;5042870;28;20553;-45
2021/05/17 12:38:56;;;;;;;1.42;0.93;;;23.90;33.50;;;;;;5038056;28;20201;-46
2021/05/17 12:41:22;;;;;;;1.65;0.80;;;23.90;33.30;;;;;;5037947;28;20226;-44
2021/05/17 12:43:48;;;;;;;0.98;0.93;;;23.90;33.30;;;;;;5042692;28;20202;-42
2021/05/17 12:46:14;;;;;;;1.30;1.00;;;23.90;33.40;;;;;;5041871;28;20198;-46
2021/05/17 12:48:41;;;;;;;1.55;0.93;;;23.90;33.60;;;;;;5043167;28;20264;-52
2021/05/17 12:51:07;;;;;;;1.20;0.70;;;23.90;33.50;;;;;;5041097;28;20733;-44
2021/05/17 12:53:33;;;;;;;1.15;1.08;;;23.90;33.40;;;;;;5041784;28;20216;-48
2021/05/17 12:55:59;;;;;;;3.25;1.13;;;23.90;33.20;;;;;;5040057;28;20225;-53
2021/05/17 12:58:25;;;;;;;1.20;0.70;;;23.90;33.50;;;;;;5043554;28;20202;-44
2021/05/17 13:00:51;;;;;;;3.42;0.75;;;23.90;33.80;;;;;;5037517;28;20259;-50
2021/05/17 13:03:17;;;;;;;1.92;1.13;;;23.90;34.20;;;;;;5048831;28;20347;-46
2021/05/17 13:05:43;;;;;;;2.47;0.90;;;23.90;34.10;;;;;;5040559;28;20218;-53
2021/05/17 13:08:09;;;;;;;0.93;0.80;;;23.80;33.10;;;;;;5042985;28;20894;-44
2021/05/17 13:10:35;;;;;;;2.60;0.80;;;23.80;33.80;;;;;;5050508;28;20283;-48
2021/05/17 13:13:01;;;;;;;1.08;0.88;;;23.90;33.70;;;;;;5053354;28;20201;-46
2021/05/17 13:15:27;;;;;;;2.75;0.90;;;23.90;33.30;;;;;;5052339;28;20202;-44
2021/05/17 13:17:54;;;;;;;1.58;0.90;;;24.00;33.20;;;;;;5040203;28;20206;-42
2021/05/17 13:20:20;;;;;;;1.48;0.80;;;24.00;33.90;;;;;;5042137;28;20206;-51
2021/05/17 13:23:18;;;;;;;1.92;0.70;;;24.00;34.00;;;;;;5050976;28;20232;-47
2021/05/17 13:31:12;;;;;;;1.13;0.90;;;23.90;33.40;;;;;;5054243;28;20220;-47
2021/05/17 13:33:38;;;;;;;1.05;0.70;;;23.90;33.10;;;;;;5053946;28;20216;-45
2021/05/17 13:36:04;;;;;;;1.77;1.00;;;23.90;33.10;;;;;;5047363;28;20230;-51